Time;durP1;ratioP1;P1;durP2;ratioP2;P2;SDS_P1;SDS_P2;PMS_P1;PMS_P2;Temp;Humidity;BMP_temperature;BMP_pressure;BME280_temperature;BME280_humidity;BME280_pressure;Samples;Min_cycle;Max_cycle;Signal;HPM_P1;HPM_P2
2023/05/20 00:00:29;;;;;;;44.53;21.33;;;12.10;83.90;;;;;;4833325;29;20516;-90
2023/05/20 00:02:56;;;;;;;43.00;21.33;;;12.00;83.80;;;;;;4831900;29;20055;-89
2023/05/20 00:05:23;;;;;;;41.97;20.60;;;12.00;83.60;;;;;;4829911;29;20139;-89
2023/05/20 00:07:50;;;;;;;41.77;21.07;;;12.10;83.70;;;;;;4831765;29;20065;-89
2023/05/20 00:10:17;;;;;;;45.80;21.65;;;12.10;83.70;;;;;;4829744;29;20050;-89
2023/05/20 00:12:44;;;;;;;43.95;22.10;;;12.10;83.40;;;;;;4833766;29;20138;-89
2023/05/20 00:15:11;;;;;;;38.72;19.85;;;12.20;83.30;;;;;;4834842;29;20078;-89
2023/05/20 00:17:38;;;;;;;43.90;20.95;;;12.20;83.30;;;;;;4827768;29;20046;-89
2023/05/20 00:20:07;;;;;;;44.33;20.73;;;12.20;83.20;;;;;;4827803;29;20099;-89
2023/05/20 00:22:34;;;;;;;43.13;20.98;;;12.20;83.10;;;;;;4835125;29;20049;-89
2023/05/20 00:25:01;;;;;;;43.55;21.70;;;12.30;83.00;;;;;;4834075;29;20042;-89
2023/05/20 00:27:28;;;;;;;44.30;21.08;;;12.20;83.20;;;;;;4832841;29;20053;-89
2023/05/20 00:29:55;;;;;;;41.53;21.30;;;12.20;83.30;;;;;;4826217;29;20431;-90
2023/05/20 00:32:23;;;;;;;46.33;21.77;;;12.20;83.40;;;;;;4824989;29;20042;-89
2023/05/20 00:34:58;;;;;;;41.25;21.42;;;12.10;83.30;;;;;;4823831;29;20145;-89
2023/05/20 00:37:26;;;;;;;43.55;21.05;;;12.10;83.40;;;;;;4829598;29;20053;-89
2023/05/20 00:39:53;;;;;;;46.63;21.23;;;12.10;83.50;;;;;;4835776;29;20402;-90
2023/05/20 00:42:21;;;;;;;47.00;21.33;;;12.20;83.50;;;;;;4829499;29;20047;-89
2023/05/20 00:44:48;;;;;;;48.07;23.13;;;12.20;83.40;;;;;;4832109;29;20041;-90
2023/05/20 00:47:20;;;;;;;44.28;21.08;;;12.20;83.20;;;;;;4831312;29;20077;-90
2023/05/20 00:49:49;;;;;;;47.70;22.05;;;12.20;83.10;;;;;;4834002;29;20066;-89
2023/05/20 00:52:18;;;;;;;45.08;22.15;;;12.20;83.10;;;;;;4831204;29;20046;-89
2023/05/20 00:54:45;;;;;;;45.92;21.65;;;12.20;83.00;;;;;;4828899;29;20047;-90
2023/05/20 00:57:13;;;;;;;50.57;24.07;;;12.20;83.20;;;;;;4830316;29;20410;-90
2023/05/20 00:59:40;;;;;;;49.60;22.35;;;12.20;83.30;;;;;;4828958;29;20137;-90
2023/05/20 01:02:10;;;;;;;46.00;21.58;;;12.10;83.40;;;;;;4831219;29;20047;-89
2023/05/20 01:04:37;;;;;;;43.60;21.60;;;12.10;83.40;;;;;;4833015;29;20068;-90
2023/05/20 01:07:06;;;;;;;49.03;22.70;;;12.10;83.40;;;;;;4851234;29;20064;-90
2023/05/20 01:09:33;;;;;;;47.87;22.77;;;12.10;83.50;;;;;;4817403;29;20410;-90
2023/05/20 01:12:09;;;;;;;50.22;23.98;;;12.20;83.40;;;;;;4834708;29;20069;-89
2023/05/20 01:14:43;;;;;;;49.38;22.88;;;12.20;83.40;;;;;;4820903;29;20047;-89
2023/05/20 01:17:12;;;;;;;46.83;21.95;;;12.20;83.40;;;;;;4835151;29;20054;-90
2023/05/20 01:19:43;;;;;;;48.95;21.13;;;12.20;83.20;;;;;;4834888;29;20493;-89
2023/05/20 01:22:12;;;;;;;43.73;21.00;;;12.20;83.30;;;;;;4833391;29;20068;-89
2023/05/20 01:24:52;;;;;;;47.67;21.80;;;12.20;83.30;;;;;;4824538;29;20105;-90
2023/05/20 01:27:24;;;;;;;43.25;20.83;;;12.10;83.20;;;;;;4832997;29;20081;-89
2023/05/20 01:29:52;;;;;;;39.97;19.35;;;12.20;83.20;;;;;;4832381;29;20065;-89
2023/05/20 01:32:29;;;;;;;44.42;20.35;;;12.10;83.10;;;;;;4835480;29;20078;-90
2023/05/20 01:34:58;;;;;;;46.03;20.90;;;12.20;83.10;;;;;;4834657;29;20061;-89
2023/05/20 01:37:27;;;;;;;40.00;19.88;;;12.10;83.10;;;;;;4842203;29;20054;-90
2023/05/20 01:39:55;;;;;;;40.00;19.27;;;12.00;83.10;;;;;;4821246;29;20109;-90
2023/05/20 01:42:24;;;;;;;38.92;18.98;;;12.00;83.30;;;;;;4825879;29;20039;-90
2023/05/20 01:44:51;;;;;;;40.65;20.33;;;12.10;83.10;;;;;;4833569;29;20062;-89
2023/05/20 01:47:18;;;;;;;40.63;19.73;;;12.20;83.10;;;;;;4834685;29;20057;-89
2023/05/20 01:49:46;;;;;;;40.80;20.02;;;12.20;82.80;;;;;;4834588;29;20568;-90
2023/05/20 01:52:13;;;;;;;37.92;20.00;;;12.10;82.70;;;;;;4840604;29;20053;-89
2023/05/20 01:54:41;;;;;;;41.33;19.98;;;12.10;82.80;;;;;;4835537;29;20545;-89
2023/05/20 01:57:08;;;;;;;46.33;20.73;;;12.10;82.90;;;;;;4833180;29;20141;-89
2023/05/20 01:59:35;;;;;;;43.10;20.40;;;12.10;82.90;;;;;;4837722;29;20050;-89
2023/05/20 02:02:03;;;;;;;42.65;21.33;;;12.10;83.00;;;;;;4833905;29;20043;-89
2023/05/20 02:04:30;;;;;;;41.97;20.20;;;12.10;83.20;;;;;;4832961;29;20053;-90
2023/05/20 02:06:57;;;;;;;42.17;20.52;;;12.00;83.30;;;;;;4832711;29;20045;-90
2023/05/20 02:09:24;;;;;;;41.78;19.25;;;12.00;83.60;;;;;;4834917;29;20050;-89
2023/05/20 02:11:51;;;;;;;42.27;20.43;;;12.00;83.60;;;;;;4831587;29;20069;-89
2023/05/20 02:14:18;;;;;;;43.47;20.17;;;12.00;83.60;;;;;;4837671;29;20052;-90
2023/05/20 02:16:46;;;;;;;44.22;20.00;;;12.00;83.60;;;;;;4834967;29;20053;-89
2023/05/20 02:19:18;;;;;;;39.55;19.90;;;12.00;83.60;;;;;;4836395;29;20434;-89
2023/05/20 02:21:47;;;;;;;37.50;19.55;;;12.00;83.60;;;;;;4820526;29;20047;-89
2023/05/20 02:24:15;;;;;;;39.40;19.30;;;12.00;83.70;;;;;;4838089;29;20102;-89
2023/05/20 02:26:45;;;;;;;40.25;21.23;;;12.10;83.50;;;;;;4836022;29;20064;-89
2023/05/20 02:29:12;;;;;;;43.05;19.10;;;12.20;83.40;;;;;;4837276;29;20078;-89
2023/05/20 02:31:39;;;;;;;42.97;19.33;;;12.20;83.30;;;;;;4835087;29;20054;-89
2023/05/20 02:34:06;;;;;;;42.30;18.33;;;12.20;83.10;;;;;;4837739;29;20043;-89
2023/05/20 02:36:33;;;;;;;39.30;19.37;;;12.20;83.10;;;;;;4834478;29;20571;-89
2023/05/20 02:39:01;;;;;;;39.85;18.45;;;12.20;83.00;;;;;;4828554;29;20066;-89
2023/05/20 02:41:30;;;;;;;39.20;19.33;;;12.20;83.10;;;;;;4836114;29;20053;-89
2023/05/20 02:43:57;;;;;;;38.30;18.35;;;12.20;82.90;;;;;;4832545;29;20072;-89
2023/05/20 02:46:27;;;;;;;41.92;19.02;;;12.20;82.80;;;;;;4832306;29;20073;-89
2023/05/20 02:48:54;;;;;;;42.70;19.03;;;12.30;82.70;;;;;;4833160;29;20080;-89
2023/05/20 02:51:23;;;;;;;39.13;17.85;;;12.20;82.80;;;;;;4840180;29;20057;-89
2023/05/20 02:53:50;;;;;;;41.83;19.67;;;12.20;82.70;;;;;;4833533;29;20413;-89
2023/05/20 02:56:20;;;;;;;41.40;18.52;;;12.20;82.90;;;;;;4837165;29;20409;-89
2023/05/20 02:58:47;;;;;;;45.83;20.85;;;12.20;83.10;;;;;;4834227;29;20406;-89
2023/05/20 03:01:14;;;;;;;46.60;21.40;;;12.20;82.90;;;;;;4834779;29;20038;-89
2023/05/20 03:03:41;;;;;;;41.08;19.88;;;12.00;83.10;;;;;;4835424;29;20189;-89
2023/05/20 03:06:08;;;;;;;40.67;19.55;;;12.00;83.30;;;;;;4833946;29;20054;-89
2023/05/20 03:08:38;;;;;;;48.22;21.98;;;12.00;83.50;;;;;;4835991;29;20049;-88
2023/05/20 03:11:05;;;;;;;46.33;22.88;;;11.90;83.60;;;;;;4833647;29;20484;-89
2023/05/20 03:13:33;;;;;;;42.93;20.33;;;11.90;83.90;;;;;;4839162;29;20050;-89
2023/05/20 03:16:00;;;;;;;45.70;20.27;;;11.80;84.00;;;;;;4834909;29;20043;-89
2023/05/20 03:18:28;;;;;;;48.33;22.20;;;11.70;84.40;;;;;;4839442;29;20532;-89
2023/05/20 03:20:55;;;;;;;47.90;22.15;;;11.80;84.40;;;;;;4842847;29;20037;-89
2023/05/20 03:23:23;;;;;;;43.00;21.00;;;11.80;84.30;;;;;;4832507;29;20042;-89
2023/05/20 03:25:50;;;;;;;42.20;19.83;;;11.90;84.10;;;;;;4836309;29;20073;-89
2023/05/20 03:28:17;;;;;;;43.20;20.27;;;11.90;84.00;;;;;;4835578;29;20077;-89
2023/05/20 03:30:45;;;;;;;41.88;20.00;;;11.90;84.00;;;;;;4836880;29;20064;-89
2023/05/20 03:33:12;;;;;;;42.78;19.58;;;12.00;83.90;;;;;;4851073;29;20516;-89
2023/05/20 03:35:40;;;;;;;45.17;20.48;;;12.00;83.80;;;;;;4836879;29;21259;-89
2023/05/20 03:38:07;;;;;;;45.17;20.43;;;12.00;83.70;;;;;;4839606;29;20097;-89
2023/05/20 03:40:36;;;;;;;43.38;20.08;;;12.00;83.80;;;;;;4835655;29;20137;-89
2023/05/20 03:43:04;;;;;;;44.70;19.38;;;12.00;83.80;;;;;;4839920;29;20091;-89
2023/05/20 03:45:33;;;;;;;45.10;20.48;;;12.00;83.90;;;;;;4839228;29;20057;-89
2023/05/20 03:48:05;;;;;;;41.03;18.45;;;12.00;83.70;;;;;;4833843;29;20042;-89
2023/05/20 03:50:34;;;;;;;46.03;18.90;;;11.90;83.80;;;;;;4839400;29;20132;-89
2023/05/20 03:53:01;;;;;;;46.17;19.67;;;11.90;84.10;;;;;;4822493;29;20046;-89
2023/05/20 03:55:35;;;;;;;45.88;18.95;;;12.00;83.90;;;;;;4834286;29;20493;-89
2023/05/20 03:58:03;;;;;;;43.30;19.77;;;12.00;83.80;;;;;;4832956;29;20508;-89
2023/05/20 04:00:31;;;;;;;46.28;19.80;;;12.00;83.70;;;;;;4834412;29;20046;-89
2023/05/20 04:02:59;;;;;;;39.30;18.40;;;12.00;83.60;;;;;;4837397;29;20041;-89
2023/05/20 04:05:26;;;;;;;42.05;18.70;;;12.00;83.70;;;;;;4833265;29;20053;-89
2023/05/20 04:07:56;;;;;;;40.45;18.50;;;12.00;83.80;;;;;;4837366;29;20057;-89
2023/05/20 04:10:24;;;;;;;41.15;18.10;;;12.00;83.80;;;;;;4833081;29;20505;-89
2023/05/20 04:12:52;;;;;;;39.05;18.45;;;12.00;83.60;;;;;;4826371;29;20157;-89
2023/05/20 04:15:22;;;;;;;40.03;18.17;;;12.00;83.50;;;;;;4830387;29;20144;-89
2023/05/20 04:17:55;;;;;;;41.55;17.42;;;12.00;83.60;;;;;;4829823;29;20391;-89
2023/05/20 04:20:23;;;;;;;44.38;19.63;;;12.00;83.50;;;;;;4834324;29;20561;-89
2023/05/20 04:22:54;;;;;;;36.65;17.67;;;12.00;83.50;;;;;;4813859;29;20099;-89
2023/05/20 04:25:21;;;;;;;40.42;18.27;;;12.00;83.50;;;;;;4833640;29;20557;-88
2023/05/20 04:27:49;;;;;;;41.83;18.00;;;12.00;83.50;;;;;;4833297;29;20102;-89
2023/05/20 04:30:17;;;;;;;40.25;17.05;;;12.00;83.50;;;;;;4831161;29;20450;-89
2023/05/20 04:32:44;;;;;;;39.00;18.00;;;12.00;83.40;;;;;;4837516;29;20049;-89
2023/05/20 04:35:12;;;;;;;41.78;18.92;;;11.90;83.60;;;;;;4831021;29;20081;-89
2023/05/20 04:37:46;;;;;;;43.13;19.33;;;11.90;84.00;;;;;;4831403;29;20042;-89
2023/05/20 04:40:14;;;;;;;35.30;14.93;;;11.90;84.00;;;;;;4836715;29;20053;-89
2023/05/20 04:42:42;;;;;;;37.42;16.73;;;11.90;84.00;;;;;;4833650;29;20038;-89
2023/05/20 04:45:11;;;;;;;34.97;16.70;;;11.90;83.80;;;;;;4835713;29;20042;-90
2023/05/20 04:47:40;;;;;;;41.10;17.90;;;11.90;83.90;;;;;;4824049;29;20494;-90
2023/05/20 04:50:14;;;;;;;47.60;18.80;;;11.90;83.80;;;;;;4813821;29;20085;-89
2023/05/20 04:52:42;;;;;;;43.10;18.37;;;11.90;84.00;;;;;;4834631;29;20160;-89
2023/05/20 04:55:11;;;;;;;41.53;19.63;;;11.90;83.90;;;;;;4836258;29;20115;-89
2023/05/20 04:57:40;;;;;;;38.97;18.52;;;11.90;83.90;;;;;;4835026;29;20095;-88
2023/05/20 05:00:11;;;;;;;44.60;18.98;;;11.90;84.00;;;;;;4833537;29;20544;-89
2023/05/20 05:02:39;;;;;;;41.22;16.92;;;12.00;84.20;;;;;;4838855;29;20389;-88
2023/05/20 05:05:06;;;;;;;42.03;18.50;;;11.90;84.10;;;;;;4833283;29;20071;-88
2023/05/20 05:07:33;;;;;;;38.55;16.95;;;11.80;84.20;;;;;;4836830;29;20046;-89
2023/05/20 05:10:00;;;;;;;39.47;16.88;;;11.90;84.30;;;;;;4832853;29;20053;-88
2023/05/20 05:12:29;;;;;;;40.92;17.60;;;11.90;84.10;;;;;;4830715;29;20144;-88
2023/05/20 05:14:58;;;;;;;41.83;16.92;;;12.00;84.10;;;;;;4830803;29;20413;-89
2023/05/20 05:17:27;;;;;;;40.77;17.53;;;12.00;83.80;;;;;;4833559;29;20042;-89
2023/05/20 05:19:56;;;;;;;36.78;16.30;;;11.90;83.90;;;;;;4832263;29;20464;-89
2023/05/20 05:22:24;;;;;;;37.63;16.92;;;11.90;83.90;;;;;;4837218;29;20386;-89
2023/05/20 05:24:51;;;;;;;36.15;15.98;;;11.90;84.10;;;;;;4837933;29;20050;-88
2023/05/20 05:27:21;;;;;;;40.08;15.75;;;11.90;84.10;;;;;;4839786;29;20049;-89
2023/05/20 05:29:49;;;;;;;38.10;17.77;;;12.00;83.90;;;;;;4836659;29;20512;-89
2023/05/20 05:32:16;;;;;;;38.92;16.65;;;12.00;83.70;;;;;;4826006;29;20483;-91
2023/05/20 05:34:44;;;;;;;38.00;16.60;;;12.10;83.60;;;;;;4833900;29;20504;-90
2023/05/20 05:37:13;;;;;;;34.33;15.45;;;12.00;83.10;;;;;;4833109;29;20066;-89
2023/05/20 05:39:41;;;;;;;38.38;15.30;;;11.90;83.30;;;;;;4834950;29;20038;-89
2023/05/20 05:42:08;;;;;;;34.67;15.93;;;12.00;83.50;;;;;;4829310;29;20455;-90
2023/05/20 05:44:35;;;;;;;39.42;16.45;;;11.90;83.30;;;;;;4831734;29;20046;-90
2023/05/20 05:47:05;;;;;;;37.83;16.17;;;11.80;83.50;;;;;;4835855;29;20050;-90
2023/05/20 05:49:33;;;;;;;37.40;16.50;;;11.80;84.10;;;;;;4835103;29;20130;-89
2023/05/20 05:52:00;;;;;;;35.88;14.65;;;11.80;83.80;;;;;;4834139;29;20043;-90
2023/05/20 05:54:27;;;;;;;36.40;15.50;;;11.80;84.00;;;;;;4826595;29;20054;-89
2023/05/20 05:56:55;;;;;;;38.50;16.02;;;11.80;84.30;;;;;;4834300;29;20136;-89
2023/05/20 05:59:23;;;;;;;38.10;15.27;;;11.80;83.90;;;;;;4831734;29;20042;-89
2023/05/20 06:01:52;;;;;;;36.58;16.33;;;11.80;83.90;;;;;;4833748;29;20046;-90
2023/05/20 06:04:19;;;;;;;37.45;16.75;;;11.80;83.90;;;;;;4833084;29;20043;-89
2023/05/20 06:06:47;;;;;;;38.10;16.30;;;11.80;83.70;;;;;;4832354;29;20047;-89
2023/05/20 06:09:15;;;;;;;34.92;14.85;;;11.90;84.00;;;;;;4836735;29;20058;-90
2023/05/20 06:11:43;;;;;;;34.15;16.77;;;11.80;84.10;;;;;;4835654;29;20117;-90
2023/05/20 06:14:10;;;;;;;38.95;16.58;;;11.90;84.40;;;;;;4831727;29;20056;-90
2023/05/20 06:16:38;;;;;;;37.63;15.80;;;12.00;83.90;;;;;;4834516;29;20047;-90
2023/05/20 06:19:08;;;;;;;38.07;16.23;;;12.00;83.40;;;;;;4835547;29;20103;-91
2023/05/20 06:21:35;;;;;;;34.67;15.00;;;12.00;83.30;;;;;;4832818;29;20057;-90
2023/05/20 06:24:06;;;;;;;34.72;14.68;;;12.00;83.40;;;;;;4849396;29;20500;-93
2023/05/20 06:26:36;;;;;;;34.72;15.48;;;12.00;83.30;;;;;;4854630;29;20052;-94
2023/05/20 06:29:04;;;;;;;35.22;16.10;;;12.00;83.10;;;;;;4839352;29;20049;-93
2023/05/20 06:31:31;;;;;;;35.00;15.70;;;12.00;83.40;;;;;;4832645;29;20042;-90
2023/05/20 06:33:58;;;;;;;34.08;14.38;;;12.10;83.40;;;;;;4830909;29;20046;-90
2023/05/20 06:36:27;;;;;;;35.72;15.07;;;12.20;82.90;;;;;;4843049;29;20060;-90
2023/05/20 06:38:54;;;;;;;37.83;14.77;;;12.10;82.90;;;;;;4829056;29;20051;-90
2023/05/20 06:41:21;;;;;;;32.58;15.40;;;12.20;82.90;;;;;;4819807;29;20418;-90
2023/05/20 06:43:51;;;;;;;30.40;14.40;;;12.20;83.10;;;;;;4848134;29;20578;-89
2023/05/20 06:46:38;;;;;;;31.83;14.77;;;12.10;82.80;;;;;;4839394;29;20061;-90
2023/05/20 06:49:09;;;;;;;33.53;14.82;;;12.10;83.00;;;;;;4835887;29;20052;-90
2023/05/20 06:51:36;;;;;;;32.60;15.20;;;12.20;83.10;;;;;;4832683;29;20492;-89
2023/05/20 06:54:04;;;;;;;32.60;14.20;;;12.20;82.80;;;;;;4832610;29;20450;-91
2023/05/20 06:56:31;;;;;;;26.63;12.90;;;12.10;82.80;;;;;;4827142;29;20405;-89
2023/05/20 06:58:58;;;;;;;27.83;12.90;;;12.10;82.90;;;;;;4833526;29;20046;-88
2023/05/20 07:01:26;;;;;;;30.38;14.63;;;12.10;82.70;;;;;;4819490;29;20146;-89
2023/05/20 07:03:54;;;;;;;34.00;15.27;;;12.10;82.70;;;;;;4834898;29;20050;-91
2023/05/20 07:06:21;;;;;;;31.48;14.65;;;12.20;82.70;;;;;;4838373;29;20126;-88
2023/05/20 07:08:49;;;;;;;29.73;14.23;;;12.20;82.90;;;;;;4828681;29;20050;-89
2023/05/20 07:11:16;;;;;;;30.42;14.52;;;12.30;82.60;;;;;;4835699;29;20140;-89
2023/05/20 07:13:43;;;;;;;27.08;13.32;;;12.40;82.30;;;;;;4831781;29;20045;-87
2023/05/20 07:16:10;;;;;;;28.52;13.30;;;12.40;82.10;;;;;;4830213;29;20056;-86
2023/05/20 07:18:41;;;;;;;29.05;13.80;;;12.50;81.80;;;;;;4837756;29;20496;-86
2023/05/20 07:21:08;;;;;;;29.50;14.37;;;12.50;81.60;;;;;;4834795;29;20199;-83
2023/05/20 07:24:05;;;;;;;27.20;12.25;;;12.70;81.70;;;;;;4809749;29;20046;-86
2023/05/20 07:26:35;;;;;;;25.83;13.18;;;12.80;80.90;;;;;;4818894;29;20073;-84
2023/05/20 07:29:03;;;;;;;30.52;14.45;;;12.80;80.30;;;;;;4837973;29;20049;-85
2023/05/20 07:31:31;;;;;;;29.35;14.32;;;12.70;80.60;;;;;;4832916;29;21022;-85
2023/05/20 07:33:58;;;;;;;30.57;14.40;;;12.60;81.00;;;;;;4832444;29;20046;-84
2023/05/20 07:36:26;;;;;;;28.00;13.07;;;12.70;81.00;;;;;;4836538;29;20042;-84
2023/05/20 07:38:54;;;;;;;25.55;12.90;;;12.70;80.80;;;;;;4834479;29;20051;-84
2023/05/20 07:41:33;;;;;;;28.02;13.50;;;12.80;81.30;;;;;;4835918;29;20097;-85
2023/05/20 07:44:03;;;;;;;27.42;13.27;;;12.90;80.60;;;;;;4836548;29;20042;-85
2023/05/20 07:46:31;;;;;;;27.37;13.40;;;13.00;80.30;;;;;;4836983;29;20065;-86
2023/05/20 07:48:59;;;;;;;27.80;14.57;;;13.10;80.30;;;;;;4831871;29;20046;-85
2023/05/20 07:51:26;;;;;;;27.90;14.07;;;13.00;79.80;;;;;;4834952;29;20050;-85
2023/05/20 07:53:53;;;;;;;27.73;13.50;;;13.00;80.10;;;;;;4835385;29;20197;-85
2023/05/20 07:56:20;;;;;;;30.42;13.98;;;13.10;79.80;;;;;;4832244;29;20048;-86
2023/05/20 07:58:59;;;;;;;26.23;13.90;;;13.10;80.40;;;;;;4834468;29;20046;-86
2023/05/20 08:01:30;;;;;;;28.13;13.80;;;13.20;79.80;;;;;;4837440;29;20043;-86
2023/05/20 08:03:58;;;;;;;28.35;13.95;;;13.20;79.40;;;;;;4835610;29;20038;-86
2023/05/20 08:06:25;;;;;;;27.00;13.43;;;13.20;79.40;;;;;;4836309;29;20137;-84
2023/05/20 08:08:56;;;;;;;26.63;12.57;;;13.20;79.50;;;;;;4830276;29;20046;-87
2023/05/20 08:11:30;;;;;;;29.23;15.73;;;13.30;79.80;;;;;;4832291;29;20118;-87
2023/05/20 08:13:58;;;;;;;26.23;13.30;;;13.40;79.40;;;;;;4832958;29;20049;-86
2023/05/20 08:16:29;;;;;;;25.92;13.05;;;13.40;78.90;;;;;;4833677;29;20493;-86
2023/05/20 08:18:56;;;;;;;26.60;13.63;;;13.50;79.20;;;;;;4832220;29;20051;-84
2023/05/20 08:21:24;;;;;;;26.80;13.02;;;13.50;78.80;;;;;;4832426;29;20046;-88
2023/05/20 08:23:51;;;;;;;28.90;13.07;;;13.50;78.50;;;;;;4834309;29;20057;-87
2023/05/20 08:26:18;;;;;;;26.05;13.15;;;13.60;79.00;;;;;;4819976;29;20050;-88
2023/05/20 08:28:45;;;;;;;25.10;13.30;;;13.50;78.40;;;;;;4831596;29;20055;-87
2023/05/20 08:31:14;;;;;;;26.08;12.52;;;13.60;78.20;;;;;;4830843;29;20048;-86
2023/05/20 08:33:41;;;;;;;25.20;13.02;;;13.70;78.00;;;;;;4831634;29;20060;-86
2023/05/20 08:36:09;;;;;;;28.50;13.50;;;13.70;78.10;;;;;;4832082;29;20053;-92
2023/05/20 08:38:37;;;;;;;24.02;13.77;;;13.70;78.00;;;;;;4821995;29;20047;-87
2023/05/20 08:41:05;;;;;;;25.60;13.50;;;13.70;78.40;;;;;;4828387;29;20053;-88
2023/05/20 08:43:34;;;;;;;23.85;13.38;;;13.80;78.00;;;;;;4831930;29;20074;-88
2023/05/20 08:46:05;;;;;;;25.27;12.73;;;13.90;78.50;;;;;;4835050;29;20049;-88
2023/05/20 08:48:35;;;;;;;25.53;14.00;;;13.90;78.30;;;;;;4830632;29;20046;-88
2023/05/20 08:51:03;;;;;;;24.00;13.27;;;14.00;78.00;;;;;;4830093;29;20508;-88
2023/05/20 08:53:30;;;;;;;24.58;13.90;;;14.10;77.80;;;;;;4822214;29;20058;-88
2023/05/20 08:56:02;;;;;;;24.80;12.80;;;14.20;77.90;;;;;;4830024;29;20444;-87
2023/05/20 08:58:30;;;;;;;23.70;13.25;;;14.20;77.00;;;;;;4829566;29;20051;-88
2023/05/20 09:00:57;;;;;;;22.60;13.00;;;14.20;77.10;;;;;;4828942;29;20494;-90
2023/05/20 09:03:25;;;;;;;25.73;13.40;;;14.30;77.50;;;;;;4835014;29;20095;-87
2023/05/20 09:05:53;;;;;;;23.77;12.95;;;14.30;76.40;;;;;;4831038;29;20596;-90
2023/05/20 09:08:27;;;;;;;22.65;12.52;;;14.40;77.60;;;;;;4834836;29;20050;-89
2023/05/20 09:10:54;;;;;;;22.80;12.65;;;14.40;77.30;;;;;;4833987;29;20141;-89
2023/05/20 09:13:23;;;;;;;25.63;14.03;;;14.50;77.00;;;;;;4832583;29;20050;-87
2023/05/20 09:15:50;;;;;;;21.98;11.82;;;14.60;76.40;;;;;;4834386;29;20050;-88
2023/05/20 09:18:17;;;;;;;24.73;14.18;;;14.70;76.40;;;;;;4833275;29;20038;-87
2023/05/20 09:20:49;;;;;;;20.58;12.55;;;14.80;75.90;;;;;;4818727;29;20050;-88
2023/05/20 09:23:20;;;;;;;22.65;12.98;;;14.80;76.40;;;;;;4820116;29;20137;-88
2023/05/20 09:25:51;;;;;;;23.50;13.63;;;14.80;75.60;;;;;;4840647;29;20057;-89
2023/05/20 09:28:23;;;;;;;23.30;13.45;;;14.80;75.30;;;;;;4838337;29;20097;-89
2023/05/20 09:30:59;;;;;;;20.52;12.88;;;14.80;75.80;;;;;;4831856;29;20493;-89
2023/05/20 09:33:30;;;;;;;20.95;12.80;;;15.00;76.10;;;;;;4839158;29;20502;-90
2023/05/20 09:36:07;;;;;;;22.70;12.60;;;15.30;76.40;;;;;;4834948;29;20050;-92
2023/05/20 09:38:38;;;;;;;22.10;13.03;;;15.50;75.60;;;;;;4836983;29;20073;-87
2023/05/20 09:41:07;;;;;;;21.17;14.18;;;15.60;74.30;;;;;;4831682;29;20053;-89
2023/05/20 09:43:36;;;;;;;22.52;12.90;;;16.00;74.70;;;;;;4843790;29;20057;-89
2023/05/20 09:46:04;;;;;;;21.35;12.27;;;16.10;73.70;;;;;;4816821;29;20509;-90
2023/05/20 09:48:35;;;;;;;21.60;13.30;;;16.10;72.70;;;;;;4837908;29;20081;-89
2023/05/20 09:51:03;;;;;;;20.83;12.50;;;16.20;73.60;;;;;;4850335;29;20401;-89
2023/05/20 09:53:30;;;;;;;21.25;11.77;;;16.50;74.10;;;;;;4837244;29;20105;-89
2023/05/20 09:55:58;;;;;;;21.05;11.75;;;16.70;73.40;;;;;;4833232;29;20587;-89
2023/05/20 09:58:26;;;;;;;20.67;12.23;;;16.90;72.80;;;;;;4834259;29;20049;-89
2023/05/20 10:00:53;;;;;;;21.15;13.20;;;17.00;72.20;;;;;;4813858;29;20086;-91
2023/05/20 10:03:23;;;;;;;19.73;11.87;;;17.00;71.80;;;;;;4838069;29;20053;-87
2023/05/20 10:06:19;;;;;;;19.88;12.80;;;16.90;71.80;;;;;;4833432;29;20501;-88
2023/05/20 10:08:49;;;;;;;19.80;12.57;;;16.90;72.30;;;;;;4841071;29;20056;-92
2023/05/20 10:11:28;;;;;;;19.35;11.32;;;17.00;72.70;;;;;;4832064;29;20061;-92
2023/05/20 10:14:08;;;;;;;18.85;12.10;;;17.00;72.00;;;;;;4847651;29;20053;-93
2023/05/20 10:16:52;;;;;;;18.30;11.33;;;17.10;73.50;;;;;;4847354;29;20450;-94
2023/05/20 10:19:32;;;;;;;19.63;12.48;;;17.20;73.30;;;;;;4848152;29;20048;-94
2023/05/20 10:22:05;;;;;;;19.38;11.77;;;17.40;73.00;;;;;;4848015;29;20442;-93
2023/05/20 10:24:39;;;;;;;17.88;10.80;;;17.70;72.50;;;;;;4847204;29;20088;-94
2023/05/20 10:27:09;;;;;;;16.30;10.38;;;17.80;71.50;;;;;;4847240;29;20416;-93
2023/05/20 10:29:52;;;;;;;15.97;9.97;;;18.00;71.40;;;;;;4833804;29;20054;-85
2023/05/20 10:32:27;;;;;;;17.63;10.48;;;18.20;70.40;;;;;;4834030;29;20053;-85
2023/05/20 10:35:03;;;;;;;15.05;9.77;;;18.20;69.40;;;;;;4848215;29;20145;-84
2023/05/20 10:37:42;;;;;;;16.30;8.85;;;18.10;70.40;;;;;;4829898;29;20564;-86
2023/05/20 10:40:11;;;;;;;14.43;9.73;;;18.00;70.30;;;;;;4843927;29;20054;-85
2023/05/20 10:42:39;;;;;;;12.70;8.00;;;18.20;71.40;;;;;;4812403;29;20137;-84
2023/05/20 10:45:08;;;;;;;13.05;8.50;;;18.10;70.40;;;;;;4848952;29;20038;-85
2023/05/20 10:47:35;;;;;;;14.48;9.05;;;18.30;71.00;;;;;;4833873;29;20121;-85
2023/05/20 10:50:04;;;;;;;15.32;8.98;;;18.50;72.40;;;;;;4817116;29;20050;-85
2023/05/20 10:52:40;;;;;;;15.30;9.38;;;18.60;72.30;;;;;;4826419;29;20052;-85
2023/05/20 10:55:18;;;;;;;16.00;8.60;;;18.70;71.90;;;;;;4826271;29;20050;-86
2023/05/20 10:57:45;;;;;;;14.77;8.93;;;18.80;71.20;;;;;;4832455;29;20046;-85
2023/05/20 11:00:14;;;;;;;15.02;9.30;;;18.90;70.40;;;;;;4832799;29;20170;-85
2023/05/20 11:02:41;;;;;;;17.10;9.43;;;18.90;70.50;;;;;;4818281;29;20103;-85
2023/05/20 11:05:11;;;;;;;14.93;9.32;;;19.00;70.90;;;;;;4814600;29;20046;-85
2023/05/20 11:07:38;;;;;;;14.07;8.70;;;18.80;70.10;;;;;;4832577;29;20050;-85
2023/05/20 11:10:09;;;;;;;15.05;9.50;;;18.90;71.00;;;;;;4815494;29;20459;-85
2023/05/20 11:12:38;;;;;;;16.40;9.32;;;18.80;71.10;;;;;;4827692;29;20078;-85
2023/05/20 11:15:05;;;;;;;15.38;9.85;;;18.90;70.20;;;;;;4825376;29;20074;-87
2023/05/20 11:17:32;;;;;;;15.05;9.63;;;19.10;70.70;;;;;;4842243;29;20103;-88
2023/05/20 11:19:59;;;;;;;17.00;10.50;;;19.10;70.70;;;;;;4817378;29;20045;-86
2023/05/20 11:22:26;;;;;;;16.45;9.68;;;19.10;72.40;;;;;;4829563;29;20403;-87
2023/05/20 11:24:53;;;;;;;17.25;10.20;;;19.20;71.40;;;;;;4828273;29;20141;-86
2023/05/20 11:27:21;;;;;;;17.75;11.32;;;19.20;71.70;;;;;;4823935;29;20047;-86
2023/05/20 11:29:49;;;;;;;18.15;11.02;;;19.00;71.10;;;;;;4841862;29;20050;-87
2023/05/20 11:32:19;;;;;;;18.60;10.80;;;19.00;71.40;;;;;;4829182;29;20043;-86
2023/05/20 11:34:51;;;;;;;17.58;11.00;;;19.10;70.40;;;;;;4826804;29;20051;-85
2023/05/20 11:37:18;;;;;;;18.00;11.00;;;19.40;70.50;;;;;;4828138;29;20467;-86
2023/05/20 11:39:46;;;;;;;19.70;11.68;;;19.40;71.40;;;;;;4834674;29;20123;-85
2023/05/20 11:42:15;;;;;;;17.38;11.60;;;19.40;70.60;;;;;;4828249;29;20065;-86
2023/05/20 11:44:44;;;;;;;18.50;10.83;;;19.40;69.30;;;;;;4815216;29;20043;-87
2023/05/20 11:47:11;;;;;;;18.30;11.48;;;19.30;70.40;;;;;;4843448;29;20058;-87
2023/05/20 11:49:41;;;;;;;18.17;11.63;;;19.30;70.50;;;;;;4810883;29;20070;-88
2023/05/20 11:52:09;;;;;;;16.80;11.15;;;19.20;70.00;;;;;;4837623;29;20049;-86
2023/05/20 11:54:36;;;;;;;21.15;12.15;;;19.30;70.60;;;;;;4827583;29;20058;-88
2023/05/20 11:57:04;;;;;;;17.97;11.90;;;19.40;69.90;;;;;;4824445;29;20055;-87
2023/05/20 11:59:33;;;;;;;21.38;12.38;;;19.40;70.40;;;;;;4828280;29;20056;-87
2023/05/20 12:02:04;;;;;;;20.45;13.32;;;19.50;70.50;;;;;;4838930;29;20046;-88
2023/05/20 12:04:31;;;;;;;25.23;13.13;;;19.50;70.80;;;;;;4813983;29;20046;-90
2023/05/20 12:06:58;;;;;;;19.30;12.68;;;19.50;69.90;;;;;;4826689;29;20093;-89
2023/05/20 12:09:25;;;;;;;21.13;12.97;;;19.50;70.20;;;;;;4827847;29;20054;-93
2023/05/20 12:11:55;;;;;;;19.15;12.43;;;19.60;70.60;;;;;;4829420;29;20145;-95
2023/05/20 12:14:24;;;;;;;20.35;12.43;;;19.60;69.70;;;;;;4826281;29;20502;-87
2023/05/20 12:16:52;;;;;;;20.83;13.18;;;19.70;71.50;;;;;;4829585;29;20102;-88
2023/05/20 12:19:20;;;;;;;19.52;12.50;;;19.60;70.30;;;;;;4825667;29;20418;-91
2023/05/20 12:21:51;;;;;;;18.50;12.37;;;19.60;71.50;;;;;;4834676;29;20054;-92
2023/05/20 12:24:18;;;;;;;20.05;12.38;;;19.90;71.90;;;;;;4842111;29;21089;-92
2023/05/20 12:26:45;;;;;;;19.50;12.63;;;20.00;69.90;;;;;;4839048;29;20390;-92
2023/05/20 12:29:12;;;;;;;18.17;11.95;;;20.00;70.50;;;;;;4831710;29;20060;-88
2023/05/20 12:31:40;;;;;;;18.35;11.98;;;20.00;72.00;;;;;;4842129;29;20134;-89
2023/05/20 12:34:07;;;;;;;23.13;12.73;;;20.30;70.10;;;;;;4828131;29;20632;-90
2023/05/20 12:36:34;;;;;;;19.35;12.05;;;20.40;68.90;;;;;;4828970;29;20141;-91